Surčin Airstrip

RS-0011 · Central Serbia, Serbia

罗盘
风向 的 风向 的 风向 到 风向 220° Surčin Airstrip 12/30
风: 4 kt, 2 beaufort


4 kt
改变
0 ft 1.000 2.000 3.000 4.000 5.000
CAVOK
METAR LYBE 191700Z 22004KT 170V270 CAVOK 35/11 Q1014 NOSIG

METAR Surčin Airstrip - RS-0011

Surčin Airstrip是,Serbia中的小机场。 该机场位于纬度44,76871和经度20,30525。 该机场有一条跑道: 12/30. 这个机场没有ICAO代码,我们使用RS-0011作为参考。 机场在Beograd FIR中。

该航空气象观测是针对貝爾格勒國際機場在2024年6月19日 19:00, 当地时间进行的。

机场观察

风向为220°,速度为4 kt。 风向在170°和270°之间变化。

天气为CAVOK。这意味着在5.000 ft或MSA(最低安全高度)以下(以较高者为准)以下没有云。这也意味着没有观测到积雨云或高耸的积云,可见度为10 km 或者更多或更高。此外,不会有雾,降雨或其他重要天气。

温度和风寒是35 °C。 露点为11 °C,相对湿度为23%。 海平面上的气压为1014 hPa (QNH)。

白天

今天,太阳从04:52升起,在20:27降落。 这适用于Surčin Airstrip,世界夏令时可能有所不同。 当地时间与世界标准时间之间的时差为+2 小时。 夏令时目前正在进行中。

公司介绍

我们没有关于这个机场的公司信息。

体会

到Vliegles.nl去找飞行课程,跳伞和其他飞行体验。 浏览页面,了解Surčin Airstrip附近所有可用的活动。 你也可以使用搜索功能来寻找你所在地附近的特定飞行课程、跳伞或其他飞行体验。

跑道

Id 标题 侧风 逆风 侧风 %
12/30 130°-310° 4 kt 100 %

逆风成分最大的方向会被突出显示,并用于横风计算。 这并不一定意味着这个方向在使用。

温度 & 天气

温度 35 °C
露点 11 °C
相对湿度 23%
Kp-index 2 (0-9)

白天

日出
04:52
中午
12:40
日落
20:28 (56m)

小工具

你想在你的网站上有一个关于Surčin Airstrip的当前航空天气(METAR)的小部件吗?

显示HTML代码
报告变更